Current | Forecast
Updated: 9:55 PM JST on May 29, 2017
Observed at Iwakuni MCAS, Japan
Temperature 70°F
Humidity 78%
Dew Point 63°F
Wind ENE at 6 mph
Pressure 29.89 in (Steady)
Conditions Clear
Visibility 6.2 miles
UV 0 out of 16
Clouds (SKC) : -
Yesterday's Maximum 77°F
Yesterday's Minimum 58°F approx.
Yesterday's Cooling Degree Days 2 approx.
Sunrise4:59 AM JST
Sunset7:14 PM JST
Moon Rise8:24 AM JST
Moon Set10:39 PM JST
Moon PhaseMoon Phase
Waxing Crescent
Raw METARMETAR RJOI 291255Z 06005KT 9999 SKC 21/17 A2989 RMK SLP121 T02110172


Monday
. High: 65° F.
Tuesday
. High: 69° F.
Wednesday
. High: 69° F.
Thursday
. High: 68° F.
Friday
. High: 69° F.
Saturday
. High: 71° F.
Sunday
. High: 73° F.
Monday
. High: 75° F.

Units: English | Metric

Find the Weather for any City, State or Zipcode, or Country:

U.S. State List | Severe Weather | Tropical Storms | Ski Conditions
United States | Canada | Central America | South America | Asia | Europe | Australia | Africa | Islands

Weather Underground

© Copyright 2017
The Weather Company, LLC